Skip Navigation LinksHome page > Weather > Current weather Skip Navigation Links

Current Weather

Bom Jesus Da Lapa, Brazil

For information only: do not use for flight planning or navigation.
Latest weather
Observation time Sunday, July 5, 2015 2:00 PM BRT
Local time Sunday, July 5, 2015 2:40 PM BRT
Flight conditions Visual Meteorological Conditions
Winds
Wind direction South-Southwest (210°)
Wind speed 7 mph
Visibility 6.2 mi.
Sky condition
Ceiling unlimited
Cloud layer scattered clouds 3,000 ft.
Temperature 99°F
Dewpoint 59°F
Altimeter 29.94 in.Hg
Derived measurements
Relative humidity 27%
Heat index 99°F
Density altitude 4142 ft.
METAR SBLP 051700Z 21006KT 9999 SCT030 37/15 Q1014

Settings

Location code

InnerDrive.Weather 4.0.5567.0 Release CLR 4.0.30319.34014
Copyright ©2015 Inner Drive Technology. All rights reserved. Portions Copyright ©1986-2015 David Braverman.

Find weather

Site navigation


Skip Navigation Links

Place info

Page info

PayPal - The safer, easier way to pay online!

Return home.

Copyright ©2015 Inner Drive Technology. Purveyors of fine, hand-crafted computer software. Page printed 2015-07-05T17:40:06 UTC.